WetterOnline ( http://www.wetteronline.de )

Wetter aktuell Lübeck

Aktuelles Wetter: Lübeck/Blankensee (15m)

6-stündlich | Neueste Meldungen
Ortszeit Temperatur Wetter
Do, 26.04. 20:00 9.6° C leicht bewölkt
Do, 26.04. 14:00 11.0° C leicht bewölkt
Do, 26.04. 8:00 6.9° C leichter Regen
Do, 26.04. 2:00 6.5° C wolkenlos
Mi, 25.04. 20:00 9.4° C bewölkt
Mi, 25.04. 14:00 9.6° C bedeckt
Mi, 25.04. 8:00 12.1° C bedeckt
Mi, 25.04. 2:00 8.0° C leichter Regen
Ortszeit Temperatur Wetter
Fr, 27.04. 0:30 5.7° C bedeckt
Fr, 27.04. 0:20 5.7° C bedeckt
Fr, 27.04. 0:10 5.8° C leicht bewölkt
Fr, 27.04. 0:00 6.3° C wolkig
Do, 26.04. 23:50 6.3° C wolkig
Do, 26.04. 23:40 6.2° C leicht bewölkt
Do, 26.04. 23:30 5.3° C fast wolkenlos
Do, 26.04. 23:00 6.2° C leicht bewölkt
Do, 26.04. 22:30 6.6° C fast wolkenlos
Do, 26.04. 22:00 7.2° C leicht bewölkt
Do, 26.04. 21:30 7.8° C leicht bewölkt
Ortszeit Relative Feuchte Sichtweite
Do, 26.04. 20:00 68% 30 km
Do, 26.04. 14:00 76% 27 km
Do, 26.04. 8:00 96% 7 km
Do, 26.04. 2:00 92% 13 km
Mi, 25.04. 20:00 74% 30 km
Mi, 25.04. 14:00 81% 30 km
Mi, 25.04. 8:00 92% 4.6 km
Mi, 25.04. 2:00 97% 7 km
Ortszeit Relative Feuchte Sichtweite
Fr, 27.04. 0:30 94% 11 km
Fr, 27.04. 0:20 94% -
Fr, 27.04. 0:10 93% -
Fr, 27.04. 0:00 89% 19 km
Do, 26.04. 23:50 89% -
Do, 26.04. 23:40 87% -
Do, 26.04. 23:30 89% 18 km
Do, 26.04. 23:00 86% 21 km
Do, 26.04. 22:30 83% 24 km
Do, 26.04. 22:00 81% 25 km
Do, 26.04. 21:30 78% 28 km
Ortszeit Niederschlagsmenge Niederschlagsart
Do, 26.04. 20:00 0.6 l/m2 in 12 Std. Regen
Do, 26.04. 14:00 0.6 l/m2 in 6 Std. Regen
Do, 26.04. 8:00 4 l/m2 in 12 Std. Regen
Do, 26.04. 2:00 0.1 l/m2 in 6 Std. Regen
Mi, 25.04. 20:00 0.1 l/m2 in 12 Std. Regen
Mi, 25.04. 14:00 0.1 l/m2 in 6 Std. Regen
Mi, 25.04. 8:00 5 l/m2 in 12 Std. Regen
Mi, 25.04. 2:00 3 l/m2 in 6 Std. Regen
Ortszeit Niederschlagsmenge Niederschlagsart
Fr, 27.04. 0:30 0.0 l/m2 in 1 Std. -
Fr, 27.04. 0:20 keine Meldung -
Fr, 27.04. 0:10 keine Meldung -
Fr, 27.04. 0:00 0.0 l/m2 in 1 Std. -
Do, 26.04. 23:50 keine Meldung -
Do, 26.04. 23:40 keine Meldung -
Do, 26.04. 23:30 0.0 l/m2 in 1 Std. -
Do, 26.04. 23:00 0.0 l/m2 in 1 Std. -
Do, 26.04. 22:30 0.0 l/m2 in 1 Std. -
Do, 26.04. 22:00 0.0 l/m2 in 1 Std. -
Do, 26.04. 21:30 0.0 l/m2 in 1 Std. -
Ortszeit Stärke Spitze Richtung
km/h Bft. km/h Grad Sektor
Do, 26.04. 20:00 19 3 44 280° W
Do, 26.04. 14:00 11 2 36 240° SW
Do, 26.04. 8:00 4 1 18 210° SW
Do, 26.04. 2:00 7 2 25 230° SW
Mi, 25.04. 20:00 11 2 47 280° W
Mi, 25.04. 14:00 31 5 57 300° NW
Mi, 25.04. 8:00 11 2 29 200° S
Mi, 25.04. 2:00 4 1 32 160° S
Ortszeit Stärke Spitze Richtung
km/h Bft. km/h Grad Sektor
Fr, 27.04. 0:30 7 2 18 190° S
Fr, 27.04. 0:20 7 2 - 190° S
Fr, 27.04. 0:10 7 2 - 190° S
Fr, 27.04. 0:00 11 2 18 190° S
Do, 26.04. 23:50 11 2 - 190° S
Do, 26.04. 23:40 9 2 - 190° S
Do, 26.04. 23:30 6 1 13 210° SW
Do, 26.04. 23:00 4 1 14 230° SW
Do, 26.04. 22:30 7 2 14 240° SW
Do, 26.04. 22:00 9 2 24 240° SW
Do, 26.04. 21:30 14 3 25 250° W
Ortszeit Untergrenze Bedeckung Gattung
total tief tief mittel hoch
Do, 26.04. 20:00 1170 m 3/8 3/8 - - -
Do, 26.04. 14:00 1500 m 6/8 1/8 - - -
Do, 26.04. 8:00 30 m 8/8 8/8 - - -
Do, 26.04. 2:00 - 0/8 0/8 - - -
Mi, 25.04. 20:00 1800 m 7/8 7/8 - - -
Mi, 25.04. 14:00 450 m 8/8 8/8 - - -
Mi, 25.04. 8:00 720 m 8/8 8/8 - - -
Mi, 25.04. 2:00 <30 m 8/8 8/8 - - -
Ortszeit Bedeckungsgrad in Achtel und Wolkenuntergrenze
Fr, 27.04. 0:30 9 9 9
Fr, 27.04. 0:20 9 9 9
Fr, 27.04. 0:10 3(1800m)
Fr, 27.04. 0:00 1(1380m) 6(1800m) 9
Do, 26.04. 23:50 1(1380m) 6(1800m)
Do, 26.04. 23:40 1(1350m) 4(1500m)
Do, 26.04. 23:30 1(1290m)
Do, 26.04. 23:00 4(1800m)
Do, 26.04. 22:30 4(1800m)
Do, 26.04. 22:00 2(4500m)
Do, 26.04. 21:30 1(2100m) 4(4500m)
Ortszeit Luftdruck NN (hPa) Tendenz (hPa in 3 Std.)
Do, 26.04. 20:00 1014 + 1,2
Do, 26.04. 14:00 1011 + 0,9
Do, 26.04. 8:00 1010 + 0,4
Do, 26.04. 2:00 1010 + 0,2
Mi, 25.04. 20:00 1009 + 0,3
Mi, 25.04. 14:00 1006 + 4,5
Mi, 25.04. 8:00 1002 - 2,5
Mi, 25.04. 2:00 1008 - 3,0
Ortszeit Luftdruck NN (hPa) Tendenz (hPa in 3 Std.)
Fr, 27.04. 0:30 1015 + 0,2
Fr, 27.04. 0:20 1015 keine Meldung
Fr, 27.04. 0:10 1015 keine Meldung
Fr, 27.04. 0:00 1015 + 0,4
Do, 26.04. 23:50 1015 keine Meldung
Do, 26.04. 23:40 1015 keine Meldung
Do, 26.04. 23:30 1015 + 1,0
Do, 26.04. 23:00 1015 + 1,2
Do, 26.04. 22:30 1015 + 1,6
Do, 26.04. 22:00 1015 + 2,1
Do, 26.04. 21:30 1015 + 2,1
Ortszeit Schneehöhe (cm)
Do, 26.04. 20:00 0
Do, 26.04. 14:00 0
Do, 26.04. 8:00 0
Do, 26.04. 2:00 0
Mi, 25.04. 20:00 0
Mi, 25.04. 14:00 0
Mi, 25.04. 8:00 0
Mi, 25.04. 2:00 0
Ortszeit Schneehöhe (cm)
Fr, 27.04. 0:30 0
Fr, 27.04. 0:20 0
Fr, 27.04. 0:10 0
Fr, 27.04. 0:00 0
Do, 26.04. 23:50 0
Do, 26.04. 23:40 0
Do, 26.04. 23:30 0
Do, 26.04. 23:00 0
Do, 26.04. 22:30 0
Do, 26.04. 22:00 0
Do, 26.04. 21:30 0
Link zu dieser Seite / Seite empfehlen

Das Wetter in ...